sensor_id;sensor_type;location;lat;lon;timestamp;P1;durP1;ratioP1;P2;durP2;ratioP2
54929;SDS011;40833;53.238;6.576;2023-12-14T00:01:34;13.20;;;6.73;;
54929;SDS011;40833;53.238;6.576;2023-12-14T00:04:00;10.70;;;6.57;;
54929;SDS011;40833;53.238;6.576;2023-12-14T00:06:27;13.73;;;6.37;;
54929;SDS011;40833;53.238;6.576;2023-12-14T00:08:53;10.73;;;7.10;;
54929;SDS011;40833;53.238;6.576;2023-12-14T00:11:19;10.40;;;6.00;;
54929;SDS011;40833;53.238;6.576;2023-12-14T00:13:44;8.63;;;4.20;;
54929;SDS011;40833;53.238;6.576;2023-12-14T00:16:10;7.37;;;4.13;;
54929;SDS011;40833;53.238;6.576;2023-12-14T00:18:36;11.30;;;5.37;;
54929;SDS011;40833;53.238;6.576;2023-12-14T00:21:02;8.37;;;5.50;;
54929;SDS011;40833;53.238;6.576;2023-12-14T00:23:28;9.87;;;5.97;;
54929;SDS011;40833;53.238;6.576;2023-12-14T00:25:54;5.80;;;5.20;;
54929;SDS011;40833;53.238;6.576;2023-12-14T00:28:19;6.83;;;5.50;;
54929;SDS011;40833;53.238;6.576;2023-12-14T00:30:45;10.80;;;5.87;;
54929;SDS011;40833;53.238;6.576;2023-12-14T00:33:11;13.37;;;5.83;;
54929;SDS011;40833;53.238;6.576;2023-12-14T00:35:36;7.57;;;6.30;;
54929;SDS011;40833;53.238;6.576;2023-12-14T00:38:02;10.27;;;5.80;;
54929;SDS011;40833;53.238;6.576;2023-12-14T00:40:28;7.43;;;5.03;;
54929;SDS011;40833;53.238;6.576;2023-12-14T00:42:53;9.13;;;4.70;;
54929;SDS011;40833;53.238;6.576;2023-12-14T00:45:19;6.70;;;4.30;;
54929;SDS011;40833;53.238;6.576;2023-12-14T00:47:44;7.77;;;4.93;;
54929;SDS011;40833;53.238;6.576;2023-12-14T00:50:10;7.03;;;4.87;;
54929;SDS011;40833;53.238;6.576;2023-12-14T00:52:36;9.17;;;5.50;;
54929;SDS011;40833;53.238;6.576;2023-12-14T00:55:02;11.73;;;5.87;;
54929;SDS011;40833;53.238;6.576;2023-12-14T00:57:28;12.57;;;6.17;;
54929;SDS011;40833;53.238;6.576;2023-12-14T00:59:53;10.63;;;6.60;;
54929;SDS011;40833;53.238;6.576;2023-12-14T01:02:19;14.73;;;6.37;;
54929;SDS011;40833;53.238;6.576;2023-12-14T01:04:45;15.77;;;7.47;;
54929;SDS011;40833;53.238;6.576;2023-12-14T01:07:10;19.37;;;7.37;;
54929;SDS011;40833;53.238;6.576;2023-12-14T01:09:36;19.07;;;7.50;;
54929;SDS011;40833;53.238;6.576;2023-12-14T01:12:02;14.17;;;7.63;;
54929;SDS011;40833;53.238;6.576;2023-12-14T01:14:28;18.03;;;8.10;;
54929;SDS011;40833;53.238;6.576;2023-12-14T01:16:54;21.77;;;8.57;;
54929;SDS011;40833;53.238;6.576;2023-12-14T01:19:19;17.03;;;8.50;;
54929;SDS011;40833;53.238;6.576;2023-12-14T01:21:45;19.80;;;9.03;;
54929;SDS011;40833;53.238;6.576;2023-12-14T01:24:11;16.30;;;8.73;;
54929;SDS011;40833;53.238;6.576;2023-12-14T01:26:36;21.80;;;9.03;;
54929;SDS011;40833;53.238;6.576;2023-12-14T01:29:02;18.27;;;8.60;;
54929;SDS011;40833;53.238;6.576;2023-12-14T01:31:27;20.17;;;9.23;;
54929;SDS011;40833;53.238;6.576;2023-12-14T01:33:53;19.37;;;8.20;;
54929;SDS011;40833;53.238;6.576;2023-12-14T01:36:20;13.27;;;8.30;;
54929;SDS011;40833;53.238;6.576;2023-12-14T01:38:49;17.67;;;8.90;;
54929;SDS011;40833;53.238;6.576;2023-12-14T01:41:16;20.53;;;9.37;;
54929;SDS011;40833;53.238;6.576;2023-12-14T01:43:41;18.93;;;9.10;;
54929;SDS011;40833;53.238;6.576;2023-12-14T01:46:07;14.33;;;8.87;;
54929;SDS011;40833;53.238;6.576;2023-12-14T01:48:33;14.97;;;9.13;;
54929;SDS011;40833;53.238;6.576;2023-12-14T01:50:59;18.27;;;8.70;;
54929;SDS011;40833;53.238;6.576;2023-12-14T01:53:25;19.53;;;8.40;;
54929;SDS011;40833;53.238;6.576;2023-12-14T01:55:51;15.17;;;7.93;;
54929;SDS011;40833;53.238;6.576;2023-12-14T01:58:16;19.20;;;8.20;;
54929;SDS011;40833;53.238;6.576;2023-12-14T02:01:28;17.33;;;8.40;;
54929;SDS011;40833;53.238;6.576;2023-12-14T02:03:31;14.83;;;7.47;;
54929;SDS011;40833;53.238;6.576;2023-12-14T02:05:56;12.90;;;6.97;;
54929;SDS011;40833;53.238;6.576;2023-12-14T02:08:23;15.37;;;8.33;;
54929;SDS011;40833;53.238;6.576;2023-12-14T02:10:49;16.23;;;8.17;;
54929;SDS011;40833;53.238;6.576;2023-12-14T02:13:15;16.57;;;8.23;;
54929;SDS011;40833;53.238;6.576;2023-12-14T02:15:41;16.73;;;7.67;;
54929;SDS011;40833;53.238;6.576;2023-12-14T02:18:07;18.20;;;7.27;;
54929;SDS011;40833;53.238;6.576;2023-12-14T02:20:33;15.77;;;7.53;;
54929;SDS011;40833;53.238;6.576;2023-12-14T02:22:58;14.83;;;7.90;;
54929;SDS011;40833;53.238;6.576;2023-12-14T02:25:24;14.80;;;8.10;;
54929;SDS011;40833;53.238;6.576;2023-12-14T02:27:50;17.37;;;7.90;;
54929;SDS011;40833;53.238;6.576;2023-12-14T02:30:16;13.93;;;7.50;;
54929;SDS011;40833;53.238;6.576;2023-12-14T02:32:43;14.63;;;7.90;;
54929;SDS011;40833;53.238;6.576;2023-12-14T02:35:09;18.50;;;8.97;;
54929;SDS011;40833;53.238;6.576;2023-12-14T02:37:35;16.23;;;7.27;;
54929;SDS011;40833;53.238;6.576;2023-12-14T02:40:06;16.10;;;7.97;;
54929;SDS011;40833;53.238;6.576;2023-12-14T02:42:32;18.90;;;8.40;;
54929;SDS011;40833;53.238;6.576;2023-12-14T02:44:58;19.93;;;7.67;;
54929;SDS011;40833;53.238;6.576;2023-12-14T02:47:24;16.83;;;7.57;;
54929;SDS011;40833;53.238;6.576;2023-12-14T02:49:50;21.03;;;8.23;;
54929;SDS011;40833;53.238;6.576;2023-12-14T02:52:15;17.93;;;7.70;;
54929;SDS011;40833;53.238;6.576;2023-12-14T02:54:41;16.50;;;7.80;;
54929;SDS011;40833;53.238;6.576;2023-12-14T02:57:07;16.70;;;7.63;;
54929;SDS011;40833;53.238;6.576;2023-12-14T02:59:32;17.00;;;7.47;;
54929;SDS011;40833;53.238;6.576;2023-12-14T03:01:58;14.47;;;7.50;;
54929;SDS011;40833;53.238;6.576;2023-12-14T03:04:25;15.70;;;7.40;;
54929;SDS011;40833;53.238;6.576;2023-12-14T03:06:50;17.53;;;7.90;;
54929;SDS011;40833;53.238;6.576;2023-12-14T03:09:16;25.20;;;7.77;;
54929;SDS011;40833;53.238;6.576;2023-12-14T03:11:44;21.80;;;8.37;;
54929;SDS011;40833;53.238;6.576;2023-12-14T03:14:10;17.50;;;7.43;;
54929;SDS011;40833;53.238;6.576;2023-12-14T03:16:36;17.20;;;8.13;;
54929;SDS011;40833;53.238;6.576;2023-12-14T03:19:02;17.30;;;7.90;;
54929;SDS011;40833;53.238;6.576;2023-12-14T03:21:28;18.53;;;8.20;;
54929;SDS011;40833;53.238;6.576;2023-12-14T03:23:54;19.93;;;8.40;;
54929;SDS011;40833;53.238;6.576;2023-12-14T03:26:20;15.47;;;8.00;;
54929;SDS011;40833;53.238;6.576;2023-12-14T03:28:45;16.30;;;8.07;;
54929;SDS011;40833;53.238;6.576;2023-12-14T03:31:12;24.50;;;9.77;;
54929;SDS011;40833;53.238;6.576;2023-12-14T03:33:38;26.87;;;8.90;;
54929;SDS011;40833;53.238;6.576;2023-12-14T03:36:04;18.43;;;9.10;;
54929;SDS011;40833;53.238;6.576;2023-12-14T03:38:30;21.87;;;8.63;;
54929;SDS011;40833;53.238;6.576;2023-12-14T03:40:56;21.30;;;8.47;;
54929;SDS011;40833;53.238;6.576;2023-12-14T03:43:22;22.73;;;9.13;;
54929;SDS011;40833;53.238;6.576;2023-12-14T03:45:48;24.73;;;9.27;;
54929;SDS011;40833;53.238;6.576;2023-12-14T03:48:14;23.23;;;10.00;;
54929;SDS011;40833;53.238;6.576;2023-12-14T03:50:39;23.60;;;9.50;;
54929;SDS011;40833;53.238;6.576;2023-12-14T03:53:05;19.27;;;10.07;;
54929;SDS011;40833;53.238;6.576;2023-12-14T03:55:31;23.43;;;9.40;;
54929;SDS011;40833;53.238;6.576;2023-12-14T03:57:57;24.60;;;10.40;;
54929;SDS011;40833;53.238;6.576;2023-12-14T04:00:23;29.50;;;10.07;;
54929;SDS011;40833;53.238;6.576;2023-12-14T04:02:49;32.13;;;10.70;;
54929;SDS011;40833;53.238;6.576;2023-12-14T04:05:15;24.70;;;10.77;;
54929;SDS011;40833;53.238;6.576;2023-12-14T04:07:40;24.03;;;10.63;;
54929;SDS011;40833;53.238;6.576;2023-12-14T04:10:07;26.33;;;11.50;;
54929;SDS011;40833;53.238;6.576;2023-12-14T04:12:33;32.37;;;10.83;;
54929;SDS011;40833;53.238;6.576;2023-12-14T04:15:00;27.33;;;10.73;;
54929;SDS011;40833;53.238;6.576;2023-12-14T04:17:25;23.07;;;10.80;;
54929;SDS011;40833;53.238;6.576;2023-12-14T04:19:51;23.70;;;11.03;;
54929;SDS011;40833;53.238;6.576;2023-12-14T04:22:16;24.80;;;11.03;;
54929;SDS011;40833;53.238;6.576;2023-12-14T04:24:42;24.87;;;10.50;;
54929;SDS011;40833;53.238;6.576;2023-12-14T04:27:08;19.90;;;10.63;;
54929;SDS011;40833;53.238;6.576;2023-12-14T04:29:34;22.50;;;11.37;;
54929;SDS011;40833;53.238;6.576;2023-12-14T04:31:59;24.33;;;11.70;;
54929;SDS011;40833;53.238;6.576;2023-12-14T04:34:25;23.53;;;11.17;;
54929;SDS011;40833;53.238;6.576;2023-12-14T04:36:51;23.17;;;11.87;;
54929;SDS011;40833;53.238;6.576;2023-12-14T04:39:18;27.43;;;11.77;;
54929;SDS011;40833;53.238;6.576;2023-12-14T04:41:43;24.17;;;11.57;;
54929;SDS011;40833;53.238;6.576;2023-12-14T04:44:09;24.10;;;10.67;;
54929;SDS011;40833;53.238;6.576;2023-12-14T04:46:35;23.47;;;10.83;;
54929;SDS011;40833;53.238;6.576;2023-12-14T04:49:01;23.30;;;11.77;;
54929;SDS011;40833;53.238;6.576;2023-12-14T04:51:27;24.57;;;10.73;;
54929;SDS011;40833;53.238;6.576;2023-12-14T04:53:53;21.23;;;11.73;;
54929;SDS011;40833;53.238;6.576;2023-12-14T04:56:18;22.27;;;10.57;;
54929;SDS011;40833;53.238;6.576;2023-12-14T04:58:44;23.90;;;11.93;;
54929;SDS011;40833;53.238;6.576;2023-12-14T05:01:11;20.90;;;10.37;;
54929;SDS011;40833;53.238;6.576;2023-12-14T05:03:37;21.93;;;11.40;;
54929;SDS011;40833;53.238;6.576;2023-12-14T05:06:02;15.53;;;10.37;;
54929;SDS011;40833;53.238;6.576;2023-12-14T05:08:28;25.87;;;10.97;;
54929;SDS011;40833;53.238;6.576;2023-12-14T05:10:54;20.80;;;11.03;;
54929;SDS011;40833;53.238;6.576;2023-12-14T05:13:20;21.13;;;10.63;;
54929;SDS011;40833;53.238;6.576;2023-12-14T05:15:45;23.70;;;11.03;;
54929;SDS011;40833;53.238;6.576;2023-12-14T05:18:11;25.57;;;11.10;;
54929;SDS011;40833;53.238;6.576;2023-12-14T05:20:37;24.73;;;11.90;;
54929;SDS011;40833;53.238;6.576;2023-12-14T05:23:02;29.37;;;12.87;;
54929;SDS011;40833;53.238;6.576;2023-12-14T05:25:28;25.27;;;11.43;;
54929;SDS011;40833;53.238;6.576;2023-12-14T05:27:54;23.17;;;11.07;;
54929;SDS011;40833;53.238;6.576;2023-12-14T05:30:19;20.70;;;10.07;;
54929;SDS011;40833;53.238;6.576;2023-12-14T05:32:45;29.03;;;11.07;;
54929;SDS011;40833;53.238;6.576;2023-12-14T05:35:11;21.73;;;11.13;;
54929;SDS011;40833;53.238;6.576;2023-12-14T05:37:40;26.47;;;10.73;;
54929;SDS011;40833;53.238;6.576;2023-12-14T05:40:07;25.27;;;10.87;;
54929;SDS011;40833;53.238;6.576;2023-12-14T05:42:34;28.03;;;11.63;;
54929;SDS011;40833;53.238;6.576;2023-12-14T05:45:00;25.40;;;11.63;;
54929;SDS011;40833;53.238;6.576;2023-12-14T05:47:26;24.20;;;11.43;;
54929;SDS011;40833;53.238;6.576;2023-12-14T05:49:52;22.20;;;11.50;;
54929;SDS011;40833;53.238;6.576;2023-12-14T05:52:17;24.50;;;11.83;;
54929;SDS011;40833;53.238;6.576;2023-12-14T05:54:43;29.73;;;12.03;;
54929;SDS011;40833;53.238;6.576;2023-12-14T05:57:09;24.30;;;11.23;;
54929;SDS011;40833;53.238;6.576;2023-12-14T05:59:38;27.97;;;11.60;;
54929;SDS011;40833;53.238;6.576;2023-12-14T06:02:04;23.53;;;10.97;;
54929;SDS011;40833;53.238;6.576;2023-12-14T06:04:31;21.03;;;11.43;;
54929;SDS011;40833;53.238;6.576;2023-12-14T06:06:57;28.43;;;11.83;;
54929;SDS011;40833;53.238;6.576;2023-12-14T06:09:23;24.67;;;10.53;;
54929;SDS011;40833;53.238;6.576;2023-12-14T06:11:51;25.83;;;11.37;;
54929;SDS011;40833;53.238;6.576;2023-12-14T06:14:17;24.27;;;10.87;;
54929;SDS011;40833;53.238;6.576;2023-12-14T06:16:43;24.10;;;10.77;;
54929;SDS011;40833;53.238;6.576;2023-12-14T06:19:08;24.33;;;9.90;;
54929;SDS011;40833;53.238;6.576;2023-12-14T06:21:34;32.73;;;11.33;;
54929;SDS011;40833;53.238;6.576;2023-12-14T06:24:00;23.67;;;10.63;;
54929;SDS011;40833;53.238;6.576;2023-12-14T06:26:26;27.20;;;11.37;;
54929;SDS011;40833;53.238;6.576;2023-12-14T06:28:52;22.57;;;11.17;;
54929;SDS011;40833;53.238;6.576;2023-12-14T06:31:18;24.43;;;10.63;;
54929;SDS011;40833;53.238;6.576;2023-12-14T06:33:47;23.67;;;10.77;;
54929;SDS011;40833;53.238;6.576;2023-12-14T06:36:16;22.37;;;10.10;;
54929;SDS011;40833;53.238;6.576;2023-12-14T06:38:45;28.37;;;10.87;;
54929;SDS011;40833;53.238;6.576;2023-12-14T06:41:23;22.57;;;10.93;;
54929;SDS011;40833;53.238;6.576;2023-12-14T06:43:49;21.90;;;11.80;;
54929;SDS011;40833;53.238;6.576;2023-12-14T06:46:15;23.30;;;11.40;;
54929;SDS011;40833;53.238;6.576;2023-12-14T06:48:41;25.40;;;11.07;;
54929;SDS011;40833;53.238;6.576;2023-12-14T06:51:07;28.47;;;10.70;;
54929;SDS011;40833;53.238;6.576;2023-12-14T06:53:34;25.93;;;10.87;;
54929;SDS011;40833;53.238;6.576;2023-12-14T06:56:01;29.00;;;11.60;;
54929;SDS011;40833;53.238;6.576;2023-12-14T06:58:27;26.03;;;11.97;;
54929;SDS011;40833;53.238;6.576;2023-12-14T07:00:52;27.37;;;12.37;;
54929;SDS011;40833;53.238;6.576;2023-12-14T07:03:18;29.97;;;12.20;;
54929;SDS011;40833;53.238;6.576;2023-12-14T07:05:44;24.83;;;11.73;;
54929;SDS011;40833;53.238;6.576;2023-12-14T07:08:09;32.13;;;11.77;;
54929;SDS011;40833;53.238;6.576;2023-12-14T07:10:35;23.33;;;11.43;;
54929;SDS011;40833;53.238;6.576;2023-12-14T07:13:01;22.33;;;12.07;;
54929;SDS011;40833;53.238;6.576;2023-12-14T07:15:27;32.47;;;12.70;;
54929;SDS011;40833;53.238;6.576;2023-12-14T07:17:52;27.97;;;12.27;;
54929;SDS011;40833;53.238;6.576;2023-12-14T07:20:18;30.17;;;13.10;;
54929;SDS011;40833;53.238;6.576;2023-12-14T07:22:43;29.70;;;12.73;;
54929;SDS011;40833;53.238;6.576;2023-12-14T07:25:09;24.60;;;11.63;;
54929;SDS011;40833;53.238;6.576;2023-12-14T07:27:35;26.77;;;12.23;;
54929;SDS011;40833;53.238;6.576;2023-12-14T07:30:00;29.20;;;11.87;;
54929;SDS011;40833;53.238;6.576;2023-12-14T07:32:26;27.30;;;12.40;;
54929;SDS011;40833;53.238;6.576;2023-12-14T07:34:52;24.43;;;12.30;;
54929;SDS011;40833;53.238;6.576;2023-12-14T07:37:18;27.30;;;13.00;;
54929;SDS011;40833;53.238;6.576;2023-12-14T07:39:43;33.73;;;13.70;;
54929;SDS011;40833;53.238;6.576;2023-12-14T07:42:09;32.20;;;11.77;;
54929;SDS011;40833;53.238;6.576;2023-12-14T07:44:35;24.07;;;12.57;;
54929;SDS011;40833;53.238;6.576;2023-12-14T07:47:02;35.17;;;12.57;;
54929;SDS011;40833;53.238;6.576;2023-12-14T07:49:28;29.50;;;13.23;;
54929;SDS011;40833;53.238;6.576;2023-12-14T07:51:54;34.30;;;13.17;;
54929;SDS011;40833;53.238;6.576;2023-12-14T07:54:19;27.60;;;13.40;;
54929;SDS011;40833;53.238;6.576;2023-12-14T07:56:45;31.13;;;13.23;;
54929;SDS011;40833;53.238;6.576;2023-12-14T07:59:11;29.13;;;14.03;;
54929;SDS011;40833;53.238;6.576;2023-12-14T08:01:36;31.50;;;12.73;;
54929;SDS011;40833;53.238;6.576;2023-12-14T08:04:02;28.40;;;13.50;;
54929;SDS011;40833;53.238;6.576;2023-12-14T08:06:29;31.03;;;13.20;;
54929;SDS011;40833;53.238;6.576;2023-12-14T08:08:55;31.77;;;13.07;;
54929;SDS011;40833;53.238;6.576;2023-12-14T08:11:25;32.40;;;14.13;;
54929;SDS011;40833;53.238;6.576;2023-12-14T08:13:50;32.63;;;14.20;;
54929;SDS011;40833;53.238;6.576;2023-12-14T08:16:16;29.63;;;13.20;;
54929;SDS011;40833;53.238;6.576;2023-12-14T08:18:44;29.40;;;12.87;;
54929;SDS011;40833;53.238;6.576;2023-12-14T08:21:11;32.50;;;14.20;;
54929;SDS011;40833;53.238;6.576;2023-12-14T08:23:37;27.80;;;13.50;;
54929;SDS011;40833;53.238;6.576;2023-12-14T08:26:03;30.90;;;12.97;;
54929;SDS011;40833;53.238;6.576;2023-12-14T08:28:29;30.60;;;13.37;;
54929;SDS011;40833;53.238;6.576;2023-12-14T08:30:54;28.40;;;14.00;;
54929;SDS011;40833;53.238;6.576;2023-12-14T08:33:23;23.17;;;13.43;;
54929;SDS011;40833;53.238;6.576;2023-12-14T08:35:48;35.60;;;14.10;;
54929;SDS011;40833;53.238;6.576;2023-12-14T08:38:15;25.93;;;13.27;;
54929;SDS011;40833;53.238;6.576;2023-12-14T08:40:41;33.57;;;13.87;;
54929;SDS011;40833;53.238;6.576;2023-12-14T08:43:07;27.87;;;13.57;;
54929;SDS011;40833;53.238;6.576;2023-12-14T08:45:33;30.70;;;14.37;;
54929;SDS011;40833;53.238;6.576;2023-12-14T08:47:58;32.67;;;15.10;;
54929;SDS011;40833;53.238;6.576;2023-12-14T08:50:24;25.53;;;14.10;;
54929;SDS011;40833;53.238;6.576;2023-12-14T08:52:53;26.93;;;13.70;;
54929;SDS011;40833;53.238;6.576;2023-12-14T08:55:18;32.53;;;14.00;;
54929;SDS011;40833;53.238;6.576;2023-12-14T08:57:44;32.03;;;14.33;;
54929;SDS011;40833;53.238;6.576;2023-12-14T09:00:10;29.90;;;13.00;;
54929;SDS011;40833;53.238;6.576;2023-12-14T09:02:36;27.80;;;13.17;;
54929;SDS011;40833;53.238;6.576;2023-12-14T09:05:02;29.20;;;13.33;;
54929;SDS011;40833;53.238;6.576;2023-12-14T09:07:29;28.30;;;13.87;;
54929;SDS011;40833;53.238;6.576;2023-12-14T09:09:55;24.03;;;13.83;;
54929;SDS011;40833;53.238;6.576;2023-12-14T09:12:21;28.13;;;14.70;;
54929;SDS011;40833;53.238;6.576;2023-12-14T09:14:47;30.87;;;14.03;;
54929;SDS011;40833;53.238;6.576;2023-12-14T09:17:12;28.13;;;13.43;;
54929;SDS011;40833;53.238;6.576;2023-12-14T09:19:38;31.77;;;14.13;;
54929;SDS011;40833;53.238;6.576;2023-12-14T09:22:04;31.97;;;14.93;;
54929;SDS011;40833;53.238;6.576;2023-12-14T09:24:29;27.97;;;14.90;;
54929;SDS011;40833;53.238;6.576;2023-12-14T09:26:55;33.37;;;15.57;;
54929;SDS011;40833;53.238;6.576;2023-12-14T09:29:21;26.13;;;13.77;;
54929;SDS011;40833;53.238;6.576;2023-12-14T09:31:47;29.47;;;14.77;;
54929;SDS011;40833;53.238;6.576;2023-12-14T09:34:12;28.20;;;13.93;;
54929;SDS011;40833;53.238;6.576;2023-12-14T09:36:38;28.23;;;13.57;;
54929;SDS011;40833;53.238;6.576;2023-12-14T09:39:05;32.57;;;13.87;;
54929;SDS011;40833;53.238;6.576;2023-12-14T09:41:34;24.97;;;13.10;;
54929;SDS011;40833;53.238;6.576;2023-12-14T09:43:59;32.27;;;13.13;;
54929;SDS011;40833;53.238;6.576;2023-12-14T09:46:27;27.23;;;13.40;;
54929;SDS011;40833;53.238;6.576;2023-12-14T09:48:55;31.33;;;14.07;;
54929;SDS011;40833;53.238;6.576;2023-12-14T09:51:25;29.97;;;13.33;;
54929;SDS011;40833;53.238;6.576;2023-12-14T09:53:52;28.67;;;13.13;;
54929;SDS011;40833;53.238;6.576;2023-12-14T09:56:23;32.17;;;13.17;;
54929;SDS011;40833;53.238;6.576;2023-12-14T09:58:50;27.57;;;14.10;;
54929;SDS011;40833;53.238;6.576;2023-12-14T10:01:22;31.93;;;13.27;;
54929;SDS011;40833;53.238;6.576;2023-12-14T10:03:49;26.10;;;13.07;;
54929;SDS011;40833;53.238;6.576;2023-12-14T10:06:17;22.60;;;13.27;;
54929;SDS011;40833;53.238;6.576;2023-12-14T10:08:45;26.17;;;13.37;;
54929;SDS011;40833;53.238;6.576;2023-12-14T10:11:20;22.63;;;12.10;;
54929;SDS011;40833;53.238;6.576;2023-12-14T10:13:47;28.40;;;13.10;;
54929;SDS011;40833;53.238;6.576;2023-12-14T10:16:13;23.47;;;12.03;;
54929;SDS011;40833;53.238;6.576;2023-12-14T10:21:22;28.73;;;12.80;;
54929;SDS011;40833;53.238;6.576;2023-12-14T10:23:49;23.90;;;13.33;;
54929;SDS011;40833;53.238;6.576;2023-12-14T10:26:14;23.43;;;13.03;;
54929;SDS011;40833;53.238;6.576;2023-12-14T10:28:40;23.50;;;12.63;;
54929;SDS011;40833;53.238;6.576;2023-12-14T10:31:06;31.83;;;13.60;;
54929;SDS011;40833;53.238;6.576;2023-12-14T10:33:33;27.93;;;12.73;;
54929;SDS011;40833;53.238;6.576;2023-12-14T10:35:58;28.17;;;13.20;;
54929;SDS011;40833;53.238;6.576;2023-12-14T10:38:25;23.90;;;12.80;;
54929;SDS011;40833;53.238;6.576;2023-12-14T10:40:54;27.70;;;13.87;;
54929;SDS011;40833;53.238;6.576;2023-12-14T10:43:22;27.67;;;13.70;;
54929;SDS011;40833;53.238;6.576;2023-12-14T10:45:48;29.73;;;14.33;;
54929;SDS011;40833;53.238;6.576;2023-12-14T10:48:13;25.83;;;13.33;;
54929;SDS011;40833;53.238;6.576;2023-12-14T10:50:39;30.00;;;13.97;;
54929;SDS011;40833;53.238;6.576;2023-12-14T10:53:08;26.57;;;13.57;;
54929;SDS011;40833;53.238;6.576;2023-12-14T10:55:38;23.53;;;13.53;;
54929;SDS011;40833;53.238;6.576;2023-12-14T10:58:08;30.17;;;13.10;;
54929;SDS011;40833;53.238;6.576;2023-12-14T11:00:34;24.80;;;13.60;;
54929;SDS011;40833;53.238;6.576;2023-12-14T11:03:01;25.30;;;13.27;;
54929;SDS011;40833;53.238;6.576;2023-12-14T11:05:30;33.33;;;13.87;;
54929;SDS011;40833;53.238;6.576;2023-12-14T11:08:04;24.87;;;14.10;;
54929;SDS011;40833;53.238;6.576;2023-12-14T11:13:09;34.83;;;16.27;;
54929;SDS011;40833;53.238;6.576;2023-12-14T11:15:39;28.47;;;14.13;;
54929;SDS011;40833;53.238;6.576;2023-12-14T11:23:16;29.27;;;13.90;;
54929;SDS011;40833;53.238;6.576;2023-12-14T11:25:51;23.17;;;13.67;;
54929;SDS011;40833;53.238;6.576;2023-12-14T11:28:18;28.30;;;14.13;;
54929;SDS011;40833;53.238;6.576;2023-12-14T11:30:45;31.30;;;14.97;;
54929;SDS011;40833;53.238;6.576;2023-12-14T11:33:12;23.50;;;12.50;;
54929;SDS011;40833;53.238;6.576;2023-12-14T11:35:38;28.93;;;13.23;;
54929;SDS011;40833;53.238;6.576;2023-12-14T11:38:04;27.60;;;13.53;;
54929;SDS011;40833;53.238;6.576;2023-12-14T11:40:40;25.63;;;13.60;;
54929;SDS011;40833;53.238;6.576;2023-12-14T11:43:05;27.47;;;14.33;;
54929;SDS011;40833;53.238;6.576;2023-12-14T11:45:33;19.57;;;11.70;;
54929;SDS011;40833;53.238;6.576;2023-12-14T11:48:03;22.60;;;12.83;;
54929;SDS011;40833;53.238;6.576;2023-12-14T11:50:31;26.10;;;13.30;;
54929;SDS011;40833;53.238;6.576;2023-12-14T11:53:00;26.77;;;13.47;;
54929;SDS011;40833;53.238;6.576;2023-12-14T11:55:28;22.33;;;11.93;;
54929;SDS011;40833;53.238;6.576;2023-12-14T11:57:55;22.30;;;11.00;;
54929;SDS011;40833;53.238;6.576;2023-12-14T12:00:28;20.17;;;11.17;;
54929;SDS011;40833;53.238;6.576;2023-12-14T12:03:07;20.20;;;11.07;;
54929;SDS011;40833;53.238;6.576;2023-12-14T12:05:42;19.20;;;10.40;;
54929;SDS011;40833;53.238;6.576;2023-12-14T12:08:10;20.37;;;9.83;;
54929;SDS011;40833;53.238;6.576;2023-12-14T12:10:40;16.47;;;10.53;;
54929;SDS011;40833;53.238;6.576;2023-12-14T12:13:09;14.70;;;8.70;;
54929;SDS011;40833;53.238;6.576;2023-12-14T12:15:37;17.10;;;9.27;;
54929;SDS011;40833;53.238;6.576;2023-12-14T12:18:05;15.47;;;9.30;;
54929;SDS011;40833;53.238;6.576;2023-12-14T12:20:31;18.47;;;9.67;;
54929;SDS011;40833;53.238;6.576;2023-12-14T12:22:57;17.93;;;9.13;;
54929;SDS011;40833;53.238;6.576;2023-12-14T12:25:23;19.07;;;10.13;;
54929;SDS011;40833;53.238;6.576;2023-12-14T12:27:49;21.40;;;10.73;;
54929;SDS011;40833;53.238;6.576;2023-12-14T12:30:15;21.67;;;10.10;;
54929;SDS011;40833;53.238;6.576;2023-12-14T12:32:41;20.90;;;9.57;;
54929;SDS011;40833;53.238;6.576;2023-12-14T12:35:08;17.80;;;9.87;;
54929;SDS011;40833;53.238;6.576;2023-12-14T12:37:34;17.13;;;10.70;;
54929;SDS011;40833;53.238;6.576;2023-12-14T12:40:00;19.23;;;10.40;;
54929;SDS011;40833;53.238;6.576;2023-12-14T12:42:26;23.20;;;10.97;;
54929;SDS011;40833;53.238;6.576;2023-12-14T12:44:51;21.27;;;11.13;;
54929;SDS011;40833;53.238;6.576;2023-12-14T12:47:17;19.40;;;11.40;;
54929;SDS011;40833;53.238;6.576;2023-12-14T12:49:43;20.13;;;11.80;;
54929;SDS011;40833;53.238;6.576;2023-12-14T12:52:09;22.10;;;11.63;;
54929;SDS011;40833;53.238;6.576;2023-12-14T12:54:35;18.47;;;11.40;;
54929;SDS011;40833;53.238;6.576;2023-12-14T12:57:00;20.70;;;10.73;;
54929;SDS011;40833;53.238;6.576;2023-12-14T12:59:26;18.47;;;10.50;;
54929;SDS011;40833;53.238;6.576;2023-12-14T13:01:52;25.37;;;10.60;;
54929;SDS011;40833;53.238;6.576;2023-12-14T13:04:22;18.73;;;10.70;;
54929;SDS011;40833;53.238;6.576;2023-12-14T13:06:48;22.10;;;11.27;;
54929;SDS011;40833;53.238;6.576;2023-12-14T13:09:15;20.03;;;11.00;;
54929;SDS011;40833;53.238;6.576;2023-12-14T13:11:42;25.13;;;11.20;;
54929;SDS011;40833;53.238;6.576;2023-12-14T13:14:08;21.97;;;11.37;;
54929;SDS011;40833;53.238;6.576;2023-12-14T13:16:34;23.27;;;12.00;;
54929;SDS011;40833;53.238;6.576;2023-12-14T13:19:01;18.53;;;11.80;;
54929;SDS011;40833;53.238;6.576;2023-12-14T13:21:28;21.13;;;11.20;;
54929;SDS011;40833;53.238;6.576;2023-12-14T13:23:54;21.07;;;11.20;;
54929;SDS011;40833;53.238;6.576;2023-12-14T13:26:22;18.70;;;10.67;;
54929;SDS011;40833;53.238;6.576;2023-12-14T13:28:48;18.50;;;10.40;;
54929;SDS011;40833;53.238;6.576;2023-12-14T13:31:14;17.37;;;10.53;;
54929;SDS011;40833;53.238;6.576;2023-12-14T13:33:39;22.23;;;11.47;;
54929;SDS011;40833;53.238;6.576;2023-12-14T13:36:05;20.37;;;10.97;;
54929;SDS011;40833;53.238;6.576;2023-12-14T13:38:33;20.30;;;10.83;;
54929;SDS011;40833;53.238;6.576;2023-12-14T13:41:01;17.87;;;10.07;;
54929;SDS011;40833;53.238;6.576;2023-12-14T13:43:28;20.27;;;11.20;;
54929;SDS011;40833;53.238;6.576;2023-12-14T13:45:54;18.90;;;10.50;;
54929;SDS011;40833;53.238;6.576;2023-12-14T13:48:23;21.40;;;11.07;;
54929;SDS011;40833;53.238;6.576;2023-12-14T13:50:52;23.63;;;11.97;;
54929;SDS011;40833;53.238;6.576;2023-12-14T13:53:18;19.03;;;10.63;;
54929;SDS011;40833;53.238;6.576;2023-12-14T13:55:45;21.13;;;10.67;;
54929;SDS011;40833;53.238;6.576;2023-12-14T13:58:11;24.77;;;11.93;;
54929;SDS011;40833;53.238;6.576;2023-12-14T14:00:37;32.53;;;10.87;;
54929;SDS011;40833;53.238;6.576;2023-12-14T14:03:03;19.90;;;10.93;;
54929;SDS011;40833;53.238;6.576;2023-12-14T14:05:30;20.67;;;11.20;;
54929;SDS011;40833;53.238;6.576;2023-12-14T14:07:56;19.03;;;11.83;;
54929;SDS011;40833;53.238;6.576;2023-12-14T14:10:22;18.10;;;10.53;;
54929;SDS011;40833;53.238;6.576;2023-12-14T14:12:48;19.83;;;11.37;;
54929;SDS011;40833;53.238;6.576;2023-12-14T14:15:15;20.80;;;11.70;;
54929;SDS011;40833;53.238;6.576;2023-12-14T14:17:41;24.30;;;11.30;;
54929;SDS011;40833;53.238;6.576;2023-12-14T14:20:07;18.53;;;11.67;;
54929;SDS011;40833;53.238;6.576;2023-12-14T14:22:35;22.43;;;10.93;;
54929;SDS011;40833;53.238;6.576;2023-12-14T14:25:03;18.33;;;11.13;;
54929;SDS011;40833;53.238;6.576;2023-12-14T14:27:31;18.70;;;10.67;;
54929;SDS011;40833;53.238;6.576;2023-12-14T14:29:57;19.20;;;10.57;;
54929;SDS011;40833;53.238;6.576;2023-12-14T14:32:23;19.43;;;10.50;;